Time;durP1;ratioP1;P1;durP2;ratioP2;P2;SDS_P1;SDS_P2;PMS_P1;PMS_P2;Temp;Humidity;BMP_temperature;BMP_pressure;BME280_temperature;BME280_humidity;BME280_pressure;Samples;Min_cycle;Max_cycle;Signal;HPM_P1;HPM_P2
2021/12/17 00:05:08;;;;;;;15.20;6.93;;;8.40;99.90;;;;;;5069640;28;20611;-86
2021/12/17 00:07:37;;;;;;;20.23;7.00;;;8.40;99.90;;;;;;5047280;28;20507;-86
2021/12/17 00:10:18;;;;;;;16.92;6.90;;;8.40;99.90;;;;;;5055059;28;20482;-86
2021/12/17 00:12:53;;;;;;;18.17;7.00;;;8.40;99.90;;;;;;5060808;28;20040;-85
2021/12/17 00:15:27;;;;;;;17.30;6.90;;;8.40;99.90;;;;;;5067789;28;20082;-84
2021/12/17 00:18:09;;;;;;;18.05;7.45;;;;;;;;;;5034443;28;20048;-86
2021/12/17 00:40:20;;;;;;;22.00;7.85;;;8.40;99.90;;;;;;5044664;28;20045;-85
2021/12/17 00:51:46;;;;;;;28.77;10.10;;;9.30;99.90;;;;;;5071406;28;20036;-85
2021/12/17 00:54:02;;;;;;;29.85;10.65;;;8.20;99.90;;;;;;5025031;28;20045;-85
2021/12/17 00:56:42;;;;;;;28.65;10.40;;;8.20;99.90;;;;;;5049959;28;20495;-84
2021/12/17 00:59:27;;;;;;;27.80;11.00;;;8.20;99.90;;;;;;5023013;28;20032;-86
2021/12/17 01:02:07;;;;;;;29.17;10.68;;;8.20;99.90;;;;;;5046792;28;20036;-85
2021/12/17 01:04:35;;;;;;;31.85;10.68;;;8.10;99.90;;;;;;5021878;28;20041;-84
2021/12/17 01:07:01;;;;;;;33.85;11.38;;;8.20;99.90;;;;;;5030560;28;20078;-85
2021/12/17 01:09:38;;;;;;;22.73;9.15;;;8.20;99.90;;;;;;5042099;28;20080;-86
2021/12/17 01:12:08;;;;;;;22.63;8.48;;;8.20;99.90;;;;;;5023152;28;20508;-85
2021/12/17 01:14:35;;;;;;;23.55;8.55;;;8.10;99.90;;;;;;5019450;28;20048;-85
2021/12/17 01:17:02;;;;;;;26.30;8.88;;;8.10;99.90;;;;;;5038305;28;20033;-84
2021/12/17 01:25:04;;;;;;;21.52;8.65;;;8.10;99.90;;;;;;5049413;28;20080;-85
2021/12/17 01:35:56;;;;;;;17.52;6.95;;;8.10;99.90;;;;;;5039319;28;20074;-85
2021/12/17 01:43:20;;;;;;;16.10;5.50;;;8.10;99.90;;;;;;5040780;28;20040;-85
2021/12/17 01:45:46;;;;;;;15.43;5.65;;;9.50;99.90;;;;;;5034024;28;20045;-84
2021/12/17 01:48:18;;;;;;;18.40;6.15;;;8.10;99.90;;;;;;5038668;28;20387;-85
2021/12/17 01:56:58;;;;;;;14.10;5.10;;;8.10;99.90;;;;;;5029950;28;20047;-84
2021/12/17 01:59:35;;;;;;;15.65;5.80;;;8.10;99.90;;;;;;5034241;28;20060;-84
2021/12/17 02:02:06;;;;;;;15.25;5.22;;;7.90;99.90;;;;;;5052330;28;20039;-85
2021/12/17 02:04:34;;;;;;;13.25;5.10;;;8.10;99.90;;;;;;5054068;28;20043;-85
2021/12/17 02:07:04;;;;;;;14.13;5.50;;;8.10;99.90;;;;;;5056018;28;20110;-85
2021/12/17 02:10:20;;;;;;;13.75;4.80;;;8.10;99.90;;;;;;5034962;28;20046;-88
2021/12/17 02:28:52;;;;;;;20.60;6.40;;;8.00;99.90;;;;;;5044251;28;20049;-84
2021/12/17 02:31:30;;;;;;;16.48;6.07;;;8.00;99.90;;;;;;5048952;28;20044;-84
2021/12/17 02:34:28;;;;;;;14.60;5.88;;;7.90;99.90;;;;;;5037234;28;20120;-85
2021/12/17 02:37:01;;;;;;;15.80;5.97;;;7.80;99.90;;;;;;5035499;28;20033;-85
2021/12/17 02:47:45;;;;;;;13.38;4.88;;;7.60;99.90;;;;;;5048930;28;20041;-85
2021/12/17 02:50:17;;;;;;;;;;;7.50;99.90;;;;;;5040507;28;20041;-86
2021/12/17 02:52:49;;;;;;;15.98;4.90;;;7.40;99.90;;;;;;5030493;28;20417;-85
2021/12/17 02:55:25;;;;;;;14.60;5.47;;;7.50;99.90;;;;;;5048350;28;20082;-86
2021/12/17 02:57:55;;;;;;;15.52;5.28;;;7.50;99.90;;;;;;5017656;22;20049;-88
2021/12/17 03:00:23;;;;;;;14.35;5.03;;;7.40;99.90;;;;;;5000701;28;20054;-84
2021/12/17 03:02:50;;;;;;;14.93;5.03;;;7.50;99.90;;;;;;4985176;28;20057;-84
2021/12/17 03:05:16;;;;;;;15.65;5.40;;;7.40;99.90;;;;;;4995603;28;20045;-86
2021/12/17 03:08:05;;;;;;;13.15;5.00;;;8.80;99.90;;;;;;4999064;28;20045;-86
2021/12/17 03:10:34;;;;;;;13.18;5.50;;;7.50;99.90;;;;;;4992801;28;20140;-86
2021/12/17 03:13:07;;;;;;;12.30;4.85;;;8.70;99.90;;;;;;5022457;28;20087;-84
2021/12/17 03:15:41;;;;;;;17.30;5.40;;;7.50;99.90;;;;;;5000828;28;20580;-85
2021/12/17 03:24:07;;;;;;;12.23;4.75;;;7.60;99.90;;;;;;5015563;28;20112;-87
2021/12/17 03:26:36;;;;;;;12.05;4.80;;;7.60;99.90;;;;;;4991734;28;20041;-85
2021/12/17 03:29:16;;;;;;;13.00;4.78;;;7.60;99.90;;;;;;4994277;28;20041;-87
2021/12/17 03:31:58;;;;;;;12.32;4.88;;;7.60;99.90;;;;;;4993677;28;20077;-86
2021/12/17 03:34:24;;;;;;;12.80;4.93;;;7.60;99.90;;;;;;4993292;28;20065;-85
2021/12/17 03:36:58;;;;;;;12.25;5.07;;;5.10;99.90;;;;;;5008273;28;20069;-86
2021/12/17 03:39:38;;;;;;;12.02;4.82;;;7.70;99.90;;;;;;5010604;28;20424;-85
2021/12/17 03:42:10;;;;;;;12.98;5.30;;;;;;;;;;5027418;28;20216;-84
2021/12/17 03:44:36;;;;;;;11.02;4.60;;;7.70;99.90;;;;;;4988070;28;20048;-85
2021/12/17 03:47:14;;;;;;;12.05;4.72;;;7.70;99.90;;;;;;4994321;28;20033;-86
2021/12/17 03:50:15;;;;;;;11.75;4.63;;;8.70;99.90;;;;;;4996218;28;20396;-87
2021/12/17 03:52:47;;;;;;;11.55;4.97;;;7.80;99.90;;;;;;5002477;28;20041;-85
2021/12/17 03:55:13;;;;;;;10.68;4.57;;;8.20;99.90;;;;;;4981581;28;20122;-88
2021/12/17 03:57:51;;;;;;;11.35;4.70;;;7.80;99.90;;;;;;4997487;28;20044;-83
2021/12/17 04:00:35;;;;;;;14.48;4.72;;;7.40;99.90;;;;;;4983445;28;20051;-85
2021/12/17 04:03:10;;;;;;;13.40;4.80;;;7.80;99.90;;;;;;5010255;28;20041;-85
2021/12/17 04:05:49;;;;;;;9.88;4.25;;;7.70;99.90;;;;;;4957915;28;20161;-84
2021/12/17 04:08:15;;;;;;;10.45;4.10;;;9.20;99.90;;;;;;5007574;28;20046;-86
2021/12/17 04:10:45;;;;;;;13.50;4.43;;;7.80;99.90;;;;;;4965586;28;20054;-85
2021/12/17 04:13:27;;;;;;;11.00;4.45;;;8.40;99.90;;;;;;4969505;28;20052;-85
2021/12/17 04:16:07;;;;;;;12.73;5.20;;;7.90;99.90;;;;;;4985514;28;20502;-86
2021/12/17 04:18:37;;;;;;;10.38;4.60;;;7.90;99.90;;;;;;4992800;28;20041;-85
2021/12/17 04:21:20;;;;;;;10.90;4.72;;;7.90;99.90;;;;;;5004476;28;20048;-85
2021/12/17 04:23:52;;;;;;;11.15;5.10;;;7.90;99.90;;;;;;5017791;28;20520;-86
2021/12/17 04:26:25;;;;;;;11.18;4.90;;;7.90;99.90;;;;;;4991321;28;20073;-86
2021/12/17 04:29:08;;;;;;;14.00;5.60;;;7.90;99.90;;;;;;4991868;28;20108;-84
2021/12/17 04:31:39;;;;;;;11.88;4.85;;;7.80;99.90;;;;;;4988614;28;20092;-85
2021/12/17 04:34:05;;;;;;;10.68;4.65;;;7.90;99.90;;;;;;4991833;28;20073;-87
2021/12/17 04:36:37;;;;;;;11.27;4.85;;;7.90;99.90;;;;;;4958539;28;20092;-89
2021/12/17 04:39:04;;;;;;;10.77;4.57;;;;;;;;;;4991835;28;20045;-85
2021/12/17 04:41:59;;;;;;;10.90;4.65;;;7.90;99.90;;;;;;5004746;28;20403;-85
2021/12/17 04:44:29;;;;;;;9.93;4.45;;;8.40;99.90;;;;;;4964930;28;20049;-87
2021/12/17 04:57:53;;;;;;;9.63;3.78;;;8.40;99.90;;;;;;4993220;28;20412;-85
2021/12/17 05:00:24;;;;;;;9.57;3.92;;;8.40;99.90;;;;;;4983872;28;20143;-86
2021/12/17 05:02:59;;;;;;;12.88;4.43;;;8.60;99.90;;;;;;4964601;28;20059;-85
2021/12/17 05:05:36;;;;;;;14.05;4.70;;;8.00;99.90;;;;;;5004646;28;20140;-85
2021/12/17 05:08:10;;;;;;;10.20;4.40;;;8.70;99.90;;;;;;5014881;28;20046;-84
2021/12/17 05:18:42;;;;;;;11.02;4.70;;;8.00;99.90;;;;;;4995586;28;20050;-86
2021/12/17 05:21:09;;;;;;;10.02;4.63;;;7.90;99.90;;;;;;4998752;28;20058;-85
2021/12/17 05:23:42;;;;;;;10.57;4.63;;;8.00;99.90;;;;;;4993910;28;20467;-85
2021/12/17 05:26:20;;;;;;;11.60;4.88;;;8.00;99.90;;;;;;5008614;28;20045;-85
2021/12/17 05:28:47;;;;;;;12.63;4.75;;;6.80;99.90;;;;;;5006777;28;20092;-84
2021/12/17 05:31:21;;;;;;;10.90;4.97;;;7.90;99.90;;;;;;4994918;28;20392;-84
2021/12/17 05:33:51;;;;;;;12.82;4.97;;;7.90;99.90;;;;;;4973244;28;20542;-86
2021/12/17 05:36:18;;;;;;;12.43;4.85;;;7.90;99.90;;;;;;4983955;28;20037;-86
2021/12/17 05:38:58;;;;;;;12.32;5.28;;;7.80;99.90;;;;;;4966541;28;20087;-83
2021/12/17 05:41:24;;;;;;;10.60;5.10;;;7.90;99.90;;;;;;4954193;28;20095;-84
2021/12/17 05:43:57;;;;;;;12.52;5.28;;;7.90;99.90;;;;;;4964470;28;20080;-85
2021/12/17 05:46:38;;;;;;;11.80;5.28;;;8.20;99.90;;;;;;4984933;28;20046;-84
2021/12/17 05:49:05;;;;;;;13.75;6.20;;;7.90;99.90;;;;;;4987851;28;20074;-85
2021/12/17 05:51:31;;;;;;;12.57;5.85;;;7.90;99.90;;;;;;4977163;28;20081;-84
2021/12/17 05:54:06;;;;;;;14.32;6.00;;;7.90;99.90;;;;;;4978163;28;20099;-85
2021/12/17 05:56:49;;;;;;;12.88;5.80;;;8.00;99.90;;;;;;4984039;28;20045;-88
2021/12/17 05:59:18;;;;;;;13.98;6.25;;;8.00;99.90;;;;;;4991471;28;20508;-85
2021/12/17 06:02:20;;;;;;;12.30;5.95;;;8.00;99.90;;;;;;4995112;28;20323;-84
2021/12/17 06:04:59;;;;;;;14.85;6.70;;;8.00;99.90;;;;;;4891988;29;20598;-86
2021/12/17 06:07:35;;;;;;;13.52;6.43;;;8.00;99.90;;;;;;4969414;28;20480;-87
2021/12/17 06:10:09;;;;;;;16.55;7.60;;;7.90;99.90;;;;;;4964412;28;20469;-85
2021/12/17 06:12:37;;;;;;;15.35;7.32;;;7.90;99.90;;;;;;4995438;28;20176;-85
2021/12/17 06:15:08;;;;;;;15.15;6.88;;;7.90;99.90;;;;;;5013999;28;20044;-86
2021/12/17 06:17:40;;;;;;;16.13;7.43;;;7.90;99.90;;;;;;4961233;28;20107;-86
2021/12/17 06:20:19;;;;;;;17.17;7.70;;;7.90;99.90;;;;;;4952857;28;20099;-85
2021/12/17 06:22:49;;;;;;;15.70;7.68;;;7.90;99.90;;;;;;4993747;28;20129;-88
2021/12/17 06:25:20;;;;;;;18.63;8.07;;;7.90;99.90;;;;;;5000012;28;20053;-87
2021/12/17 06:28:04;;;;;;;17.20;7.90;;;7.90;99.90;;;;;;4995392;28;20042;-86
2021/12/17 06:30:30;;;;;;;16.73;8.00;;;;;;;;;;4987505;28;20118;-85
2021/12/17 06:32:59;;;;;;;19.17;8.98;;;7.90;99.90;;;;;;5003409;28;20428;-85
2021/12/17 06:35:46;;;;;;;18.85;8.43;;;7.90;99.90;;;;;;4968851;28;20171;-85
2021/12/17 06:38:15;;;;;;;17.52;8.38;;;7.80;99.90;;;;;;5008702;28;20045;-86
2021/12/17 06:40:48;;;;;;;16.52;8.15;;;;;;;;;;4994928;28;20089;-86
2021/12/17 06:43:18;;;;;;;16.98;8.25;;;7.80;99.90;;;;;;4977180;28;20473;-85
2021/12/17 06:45:58;;;;;;;19.60;8.50;;;8.50;99.90;;;;;;4976873;28;20073;-88
2021/12/17 06:48:33;;;;;;;18.77;9.02;;;7.80;99.90;;;;;;5007854;28;20060;-87
2021/12/17 07:10:43;;;;;;;19.75;9.10;;;;;;;;;;4945931;28;20110;-88
2021/12/17 07:38:37;;;;;;;18.85;8.65;;;7.90;99.90;;;;;;4958080;28;20129;-85
2021/12/17 07:40:11;;;;;;;24.08;10.20;;;7.80;99.90;;;;;;4941274;28;20047;-86
2021/12/17 07:42:40;;;;;;;21.30;9.88;;;7.90;99.90;;;;;;4944015;28;20084;-86
2021/12/17 07:45:06;;;;;;;23.17;10.20;;;7.90;99.90;;;;;;4926075;28;20082;-86
2021/12/17 07:47:40;;;;;;;22.45;9.93;;;7.80;99.90;;;;;;4945373;28;20043;-86
2021/12/17 07:50:06;;;;;;;23.55;9.77;;;8.80;99.90;;;;;;4945097;28;20484;-86
2021/12/17 07:52:53;;;;;;;23.48;10.50;;;8.00;99.90;;;;;;4933641;28;20125;-87
2021/12/17 07:55:25;;;;;;;19.00;9.27;;;8.40;99.90;;;;;;4944316;28;20094;-86
2021/12/17 07:57:55;;;;;;;21.33;10.23;;;6.00;99.90;;;;;;4936127;28;20378;-87
2021/12/17 08:00:21;;;;;;;22.75;10.68;;;8.10;99.90;;;;;;4972573;28;20195;-87
2021/12/17 08:02:47;;;;;;;26.67;10.40;;;8.10;99.90;;;;;;4986568;28;20494;-85
2021/12/17 08:05:13;;;;;;;22.85;10.63;;;8.20;99.90;;;;;;4984962;28;20044;-85
2021/12/17 08:07:38;;;;;;;23.55;10.60;;;9.50;99.90;;;;;;4968037;28;20124;-86
2021/12/17 08:10:14;;;;;;;25.15;10.57;;;8.10;99.90;;;;;;4970433;28;20066;-86
2021/12/17 08:12:42;;;;;;;24.48;10.45;;;8.20;99.90;;;;;;4975945;28;20117;-85
2021/12/17 08:15:23;;;;;;;22.25;9.77;;;8.20;99.90;;;;;;4984075;28;21206;-86
2021/12/17 08:27:30;;;;;;;27.08;10.23;;;8.20;99.90;;;;;;5011266;28;20042;-85
2021/12/17 08:32:07;;;;;;;23.35;10.48;;;9.10;99.90;;;;;;5011936;28;20073;-87
2021/12/17 08:34:34;;;;;;;26.30;11.05;;;8.30;99.90;;;;;;4993365;28;20224;-85
2021/12/17 08:37:03;;;;;;;21.85;10.57;;;9.20;99.90;;;;;;4982503;28;20053;-86
2021/12/17 08:39:29;;;;;;;22.67;10.20;;;8.30;99.90;;;;;;5001432;28;20042;-85
2021/12/17 08:42:00;;;;;;;25.48;11.23;;;8.70;99.90;;;;;;4966365;28;20065;-85
2021/12/17 08:44:25;;;;;;;23.95;10.88;;;8.30;99.90;;;;;;5001391;28;20068;-85
2021/12/17 08:46:51;;;;;;;25.85;11.38;;;8.40;99.90;;;;;;4964379;28;20500;-86
2021/12/17 08:49:17;;;;;;;24.30;10.45;;;8.40;99.90;;;;;;4973867;28;20121;-86
2021/12/17 08:51:47;;;;;;;25.42;11.20;;;8.40;99.90;;;;;;4975420;28;20046;-86
2021/12/17 08:54:12;;;;;;;24.33;11.20;;;8.40;99.90;;;;;;4974609;28;20038;-85
2021/12/17 08:56:47;;;;;;;23.65;10.52;;;8.40;99.90;;;;;;4981970;28;20045;-87
2021/12/17 08:59:17;;;;;;;24.00;10.48;;;8.40;99.90;;;;;;5003929;28;20038;-85
2021/12/17 09:01:54;;;;;;;22.38;10.05;;;9.70;99.90;;;;;;5001221;28;20112;-87
2021/12/17 09:04:20;;;;;;;20.50;9.88;;;8.50;99.90;;;;;;4987018;28;20132;-86
2021/12/17 09:06:49;;;;;;;20.55;8.88;;;8.50;99.90;;;;;;5011290;28;20117;-86
2021/12/17 09:09:22;;;;;;;25.08;10.13;;;8.50;99.90;;;;;;5014137;28;20091;-90
2021/12/17 09:11:51;;;;;;;20.45;9.20;;;8.50;99.90;;;;;;5004398;28;20041;-86
2021/12/17 09:14:19;;;;;;;21.00;9.45;;;8.60;99.90;;;;;;4958934;28;20077;-86
2021/12/17 09:16:48;;;;;;;21.52;9.57;;;8.60;99.90;;;;;;4970323;28;20445;-87
2021/12/17 09:19:15;;;;;;;21.90;9.75;;;8.60;99.90;;;;;;4983589;28;20054;-85
2021/12/17 09:21:43;;;;;;;22.58;9.38;;;8.60;99.90;;;;;;5007098;28;20033;-85
2021/12/17 09:24:10;;;;;;;20.95;9.35;;;8.60;99.90;;;;;;5000300;28;20268;-85
2021/12/17 09:26:39;;;;;;;20.27;9.55;;;9.00;99.90;;;;;;4995949;28;20041;-88
2021/12/17 09:29:16;;;;;;;19.33;8.77;;;8.60;99.90;;;;;;4991737;28;21122;-85
2021/12/17 09:31:48;;;;;;;23.40;9.77;;;8.70;99.90;;;;;;4964776;28;20120;-85
2021/12/17 09:34:14;;;;;;;23.55;9.40;;;8.70;99.90;;;;;;4993660;28;20077;-86
2021/12/17 09:36:49;;;;;;;25.10;9.57;;;9.20;99.90;;;;;;4996408;28;20116;-86
2021/12/17 09:39:24;;;;;;;22.60;9.65;;;8.70;99.90;;;;;;4986273;28;20132;-86
2021/12/17 09:41:53;;;;;;;23.80;10.00;;;8.70;99.90;;;;;;4977867;28;20046;-85
2021/12/17 09:44:22;;;;;;;22.02;9.85;;;8.70;99.90;;;;;;4990332;28;20707;-85
2021/12/17 09:46:48;;;;;;;21.10;9.57;;;;;;;;;;4999037;28;20057;-86
2021/12/17 09:49:20;;;;;;;19.73;9.15;;;8.80;99.90;;;;;;4975456;28;20133;-85
2021/12/17 09:52:07;;;;;;;20.17;9.50;;;8.80;99.90;;;;;;5007837;28;20043;-86
2021/12/17 09:54:33;;;;;;;24.55;9.55;;;8.80;99.90;;;;;;4975819;28;20520;-85
2021/12/17 09:56:59;;;;;;;21.92;8.60;;;8.80;99.90;;;;;;4992831;28;20036;-86
2021/12/17 09:59:29;;;;;;;21.27;9.30;;;8.80;99.90;;;;;;4973951;28;20129;-85
2021/12/17 10:01:54;;;;;;;19.58;9.20;;;8.80;99.90;;;;;;4970153;28;20033;-85
2021/12/17 10:04:29;;;;;;;21.60;9.77;;;8.80;99.90;;;;;;4956151;28;20049;-87
2021/12/17 10:07:43;;;;;;;24.38;9.57;;;8.90;99.90;;;;;;5010243;28;20046;-85
2021/12/17 10:10:09;;;;;;;22.92;9.27;;;8.90;99.90;;;;;;4992436;28;20501;-87
2021/12/17 10:12:47;;;;;;;22.23;8.80;;;8.90;99.90;;;;;;4961078;28;20082;-86
2021/12/17 10:15:20;;;;;;;20.17;9.00;;;8.90;99.90;;;;;;4984638;28;20281;-85
2021/12/17 10:17:54;;;;;;;23.52;9.45;;;8.90;99.90;;;;;;4972024;28;20041;-85
2021/12/17 10:20:23;;;;;;;22.58;8.68;;;9.00;99.90;;;;;;4960632;28;20042;-85
2021/12/17 10:23:15;;;;;;;19.65;8.40;;;9.00;99.90;;;;;;4979600;28;20042;-85
2021/12/17 10:25:45;;;;;;;19.10;8.18;;;9.00;99.90;;;;;;4992615;28;20058;-84
2021/12/17 10:28:17;;;;;;;21.85;9.10;;;9.10;99.90;;;;;;4986595;28;20119;-86
2021/12/17 10:30:46;;;;;;;20.25;9.05;;;9.10;99.90;;;;;;4982743;28;20045;-85
2021/12/17 10:33:17;;;;;;;20.45;8.88;;;9.10;99.90;;;;;;4984744;28;20037;-84
2021/12/17 10:35:46;;;;;;;18.52;8.15;;;9.10;99.90;;;;;;5004462;28;20207;-85
2021/12/17 10:38:15;;;;;;;20.65;8.45;;;9.10;99.90;;;;;;4993933;28;20408;-86
2021/12/17 10:41:01;;;;;;;21.23;8.25;;;9.10;99.90;;;;;;4989890;28;20068;-85
2021/12/17 10:43:38;;;;;;;18.65;8.00;;;9.10;99.90;;;;;;4997523;28;20559;-86
2021/12/17 10:54:08;;;;;;;17.95;7.63;;;9.30;99.90;;;;;;4996769;28;20061;-86
2021/12/17 10:56:39;;;;;;;18.75;8.15;;;9.10;99.90;;;;;;4981882;28;20109;-88
2021/12/17 10:59:23;;;;;;;17.88;7.70;;;9.30;99.90;;;;;;4979469;28;20081;-88
2021/12/17 11:01:55;;;;;;;17.73;7.40;;;9.30;99.90;;;;;;5004410;28;20045;-86
2021/12/17 11:04:34;;;;;;;17.75;7.22;;;9.20;99.90;;;;;;4970416;28;20467;-86
2021/12/17 11:07:14;;;;;;;18.35;8.48;;;9.30;99.90;;;;;;4960547;28;20057;-85
2021/12/17 11:10:01;;;;;;;16.90;7.80;;;9.30;99.90;;;;;;4987619;28;20377;-85
2021/12/17 11:12:44;;;;;;;15.30;7.90;;;9.30;99.90;;;;;;4989489;28;20072;-86
2021/12/17 11:15:34;;;;;;;20.35;7.78;;;9.30;99.90;;;;;;4980745;28;20681;-85
2021/12/17 11:18:05;;;;;;;16.92;7.45;;;8.50;99.90;;;;;;4997135;28;20096;-87
2021/12/17 11:20:39;;;;;;;14.57;7.38;;;9.50;99.90;;;;;;5002878;28;20042;-85
2021/12/17 11:23:16;;;;;;;13.35;7.00;;;9.30;99.90;;;;;;5002786;28;20038;-86
2021/12/17 11:25:46;;;;;;;12.07;6.35;;;9.30;99.90;;;;;;4978997;28;20061;-85
2021/12/17 11:28:17;;;;;;;14.35;6.60;;;9.40;99.90;;;;;;4993893;28;20042;-85
2021/12/17 11:30:46;;;;;;;13.80;6.60;;;9.40;99.90;;;;;;4976215;28;20050;-86
2021/12/17 11:33:12;;;;;;;14.05;6.10;;;9.40;99.90;;;;;;4984780;28;20122;-85
2021/12/17 11:35:43;;;;;;;12.32;5.93;;;9.40;99.90;;;;;;4988792;28;20048;-85
2021/12/17 11:38:37;;;;;;;11.50;5.60;;;9.30;99.90;;;;;;4995064;28;20107;-86
2021/12/17 11:41:10;;;;;;;12.02;5.32;;;9.50;99.90;;;;;;4986824;28;20057;-86
2021/12/17 11:43:59;;;;;;;11.77;5.35;;;9.30;99.90;;;;;;4992357;28;20504;-85
2021/12/17 11:46:31;;;;;;;13.43;5.28;;;9.40;99.90;;;;;;4991006;28;20065;-86
2021/12/17 11:49:07;;;;;;;12.20;5.28;;;9.40;99.90;;;;;;4985391;28;20033;-86
2021/12/17 11:51:36;;;;;;;9.90;4.72;;;9.40;99.90;;;;;;4968732;28;20038;-86
2021/12/17 11:54:11;;;;;;;10.40;4.65;;;9.50;99.90;;;;;;4982482;28;20069;-86
2021/12/17 11:56:41;;;;;;;8.98;3.88;;;9.40;99.90;;;;;;4981995;28;20084;-86
2021/12/17 11:59:12;;;;;;;10.13;4.03;;;9.50;99.90;;;;;;4967281;28;20078;-85
2021/12/17 12:02:02;;;;;;;9.15;4.10;;;9.50;99.90;;;;;;4999560;28;20433;-86
2021/12/17 12:04:34;;;;;;;10.52;4.40;;;9.50;99.90;;;;;;4984166;28;20594;-85
2021/12/17 12:07:12;;;;;;;9.60;3.70;;;9.50;99.90;;;;;;4985319;28;20109;-86
2021/12/17 12:09:57;;;;;;;9.30;3.60;;;9.50;99.90;;;;;;4987862;28;20046;-85
2021/12/17 12:12:31;;;;;;;8.25;3.42;;;9.50;99.90;;;;;;4971866;28;20046;-85
2021/12/17 12:15:17;;;;;;;12.05;4.05;;;9.50;99.90;;;;;;4984549;28;20038;-86
2021/12/17 12:17:58;;;;;;;8.63;3.63;;;9.50;99.90;;;;;;4958031;28;20034;-85
2021/12/17 12:20:52;;;;;;;8.70;3.25;;;10.70;99.90;;;;;;4958136;28;20207;-85
2021/12/17 12:23:30;;;;;;;9.43;3.70;;;9.50;99.90;;;;;;4970597;28;20043;-85
2021/12/17 12:26:02;;;;;;;10.15;3.80;;;9.50;99.90;;;;;;4989885;28;20037;-84
2021/12/17 12:29:04;;;;;;;;;;;;;;;;;;;;;
2021/12/17 12:31:33;;;;;;;10.63;4.07;;;9.50;99.90;;;;;;4936475;28;21054;-85
2021/12/17 12:36:45;;;;;;;13.98;4.68;;;9.50;99.90;;;;;;4974544;28;20125;-86
2021/12/17 12:39:27;;;;;;;9.23;4.28;;;9.50;99.90;;;;;;4986485;28;20038;-87
2021/12/17 12:42:02;;;;;;;11.83;4.53;;;9.50;99.90;;;;;;5006149;28;20046;-86
2021/12/17 12:44:55;;;;;;;10.98;4.90;;;9.40;99.90;;;;;;4983638;28;20540;-86
2021/12/17 12:47:30;;;;;;;9.27;4.03;;;9.50;99.90;;;;;;4976951;28;20050;-85
2021/12/17 12:50:07;;;;;;;9.80;4.40;;;9.50;99.90;;;;;;4980003;28;20061;-86
2021/12/17 12:52:39;;;;;;;10.13;4.70;;;9.60;99.90;;;;;;4971704;28;20054;-84
2021/12/17 12:55:04;;;;;;;10.75;4.25;;;9.50;99.90;;;;;;4997028;28;20339;-86
2021/12/17 12:57:39;;;;;;;9.40;4.60;;;9.50;99.90;;;;;;4984818;28;20418;-86
2021/12/17 13:00:18;;;;;;;10.07;4.88;;;9.50;99.90;;;;;;4971470;28;20054;-85
2021/12/17 13:02:57;;;;;;;9.98;4.93;;;9.50;99.90;;;;;;4999566;28;20257;-86
2021/12/17 13:05:26;;;;;;;9.88;4.72;;;9.40;99.90;;;;;;5017526;28;20743;-84
2021/12/17 13:07:57;;;;;;;10.93;5.40;;;10.30;99.90;;;;;;4994362;28;20069;-87
2021/12/17 13:10:26;;;;;;;12.15;5.38;;;9.50;99.90;;;;;;4992587;28;20101;-85
2021/12/17 13:13:07;;;;;;;10.77;4.95;;;9.50;99.90;;;;;;4990243;28;20128;-86
2021/12/17 13:24:13;;;;;;;9.93;4.68;;;9.50;99.90;;;;;;5009356;28;20566;-85
2021/12/17 13:26:57;;;;;;;14.18;5.35;;;9.50;99.90;;;;;;5024060;28;20045;-86
2021/12/17 13:29:32;;;;;;;11.00;5.20;;;;;;;;;;5010291;28;20410;-86
2021/12/17 13:32:09;;;;;;;10.48;5.65;;;9.50;99.90;;;;;;4992033;28;20480;-85
2021/12/17 13:34:56;;;;;;;10.50;5.50;;;9.50;99.90;;;;;;4964630;28;20049;-87
2021/12/17 13:37:25;;;;;;;9.32;5.00;;;9.50;99.90;;;;;;4990595;28;20045;-84
2021/12/17 13:40:11;;;;;;;9.70;4.90;;;9.50;99.90;;;;;;4995179;28;20503;-87
2021/12/17 13:42:50;;;;;;;11.77;5.30;;;9.50;99.90;;;;;;4995619;28;20053;-86
2021/12/17 13:45:26;;;;;;;10.48;4.90;;;10.70;99.90;;;;;;5009067;28;20069;-87
2021/12/17 13:48:11;;;;;;;13.65;5.32;;;10.50;99.90;;;;;;4999011;28;20049;-85
2021/12/17 13:50:45;;;;;;;9.95;4.72;;;9.50;99.90;;;;;;4976674;28;20034;-86
2021/12/17 13:53:14;;;;;;;11.07;4.80;;;10.60;99.90;;;;;;4983580;28;20116;-83
2021/12/17 13:55:50;;;;;;;10.65;5.07;;;9.50;99.90;;;;;;4989940;28;20113;-84
2021/12/17 13:58:22;;;;;;;10.90;5.90;;;10.10;99.90;;;;;;4992441;28;20575;-83
2021/12/17 14:00:55;;;;;;;11.18;5.20;;;10.30;99.90;;;;;;4998100;28;20508;-86
2021/12/17 14:03:33;;;;;;;10.10;4.68;;;9.50;99.90;;;;;;4973920;28;20431;-84
2021/12/17 14:06:18;;;;;;;9.10;4.88;;;9.50;99.90;;;;;;5007125;28;20053;-88
2021/12/17 14:08:44;;;;;;;9.68;4.80;;;9.50;99.90;;;;;;4996556;28;20053;-84
2021/12/17 14:11:34;;;;;;;9.95;4.90;;;9.50;99.90;;;;;;5010564;28;20048;-87
2021/12/17 14:14:03;;;;;;;10.05;5.50;;;9.50;99.90;;;;;;4973919;28;20058;-86
2021/12/17 14:16:33;;;;;;;12.15;5.45;;;9.30;99.90;;;;;;4979256;28;20048;-88
2021/12/17 14:19:06;;;;;;;12.57;5.78;;;9.50;99.90;;;;;;4984031;28;20435;-86
2021/12/17 14:21:40;;;;;;;10.77;6.10;;;;;;;;;;4970012;28;20056;-85
2021/12/17 14:24:30;;;;;;;12.77;6.10;;;9.40;99.90;;;;;;4979325;28;20039;-85
2021/12/17 14:26:56;;;;;;;10.82;5.75;;;7.80;99.90;;;;;;4991312;28;20038;-85
2021/12/17 14:29:28;;;;;;;11.30;5.78;;;9.40;99.90;;;;;;4958375;28;20045;-86
2021/12/17 14:31:59;;;;;;;11.38;5.70;;;9.40;99.90;;;;;;4996371;28;20053;-85
2021/12/17 14:34:25;;;;;;;10.65;5.25;;;9.40;99.90;;;;;;5020686;28;20037;-85
2021/12/17 14:37:01;;;;;;;9.85;5.15;;;9.40;99.90;;;;;;4971164;28;20037;-85
2021/12/17 14:39:42;;;;;;;12.00;6.03;;;9.40;99.90;;;;;;4989648;28;20049;-86
2021/12/17 14:42:13;;;;;;;10.07;5.38;;;9.40;99.90;;;;;;4981688;28;20054;-86
2021/12/17 14:44:55;;;;;;;12.10;5.88;;;9.40;99.90;;;;;;4990716;28;20050;-84
2021/12/17 15:03:47;;;;;;;10.77;5.85;;;9.30;99.90;;;;;;4988208;28;20042;-85
2021/12/17 15:06:24;;;;;;;11.80;6.05;;;9.30;99.90;;;;;;4989388;28;20044;-86
2021/12/17 15:09:04;;;;;;;11.77;6.45;;;9.30;99.90;;;;;;4990879;28;20069;-85
2021/12/17 15:11:37;;;;;;;12.20;6.82;;;9.30;99.90;;;;;;4988478;28;20050;-84
2021/12/17 15:14:09;;;;;;;12.40;6.50;;;9.30;99.90;;;;;;4968627;28;20034;-85
2021/12/17 15:16:46;;;;;;;13.63;6.32;;;9.30;99.90;;;;;;4984832;28;20177;-86
2021/12/17 15:19:12;;;;;;;12.00;6.40;;;9.20;99.90;;;;;;4982294;28;20823;-86
2021/12/17 15:21:37;;;;;;;12.43;6.60;;;9.20;99.90;;;;;;4988337;28;20046;-86
2021/12/17 15:24:03;;;;;;;11.95;6.30;;;9.20;99.90;;;;;;4975838;28;20050;-83
2021/12/17 15:26:37;;;;;;;14.13;6.78;;;9.30;99.90;;;;;;4975933;28;20041;-86
2021/12/17 15:29:05;;;;;;;13.20;6.63;;;9.30;99.90;;;;;;4960164;28;20098;-90
2021/12/17 15:31:31;;;;;;;13.73;6.93;;;9.20;99.90;;;;;;5004033;28;20045;-86
2021/12/17 15:34:00;;;;;;;13.45;6.80;;;;;;;;;;4975902;28;20038;-86
2021/12/17 15:36:34;;;;;;;11.48;6.50;;;9.20;99.90;;;;;;4972484;28;20041;-86
2021/12/17 15:39:00;;;;;;;11.13;6.38;;;9.20;99.90;;;;;;4972137;28;20066;-85
2021/12/17 15:41:41;;;;;;;11.25;6.45;;;9.20;99.90;;;;;;5005367;28;20104;-86
2021/12/17 15:44:10;;;;;;;12.32;6.70;;;9.20;99.90;;;;;;4964039;28;20482;-84
2021/12/17 15:46:50;;;;;;;12.60;6.57;;;9.20;99.90;;;;;;4970779;28;20424;-86
2021/12/17 15:49:22;;;;;;;20.73;7.50;;;;;;;;;;4957630;28;20083;-86
2021/12/17 15:51:51;;;;;;;13.55;6.65;;;9.20;99.90;;;;;;4966060;28;20497;-86
2021/12/17 15:54:22;;;;;;;10.90;5.93;;;9.10;99.90;;;;;;4986118;28;20078;-86
2021/12/17 15:57:15;;;;;;;14.98;6.65;;;9.20;99.90;;;;;;5000418;28;20578;-86
2021/12/17 15:59:39;;;;;;;13.50;7.15;;;9.20;99.90;;;;;;4975589;28;20112;-86
2021/12/17 16:02:22;;;;;;;16.73;7.22;;;9.40;99.90;;;;;;4993599;28;20038;-87
2021/12/17 16:05:01;;;;;;;14.75;6.32;;;9.10;99.90;;;;;;4998565;28;20415;-87
2021/12/17 16:07:28;;;;;;;16.90;8.05;;;9.10;99.90;;;;;;4975574;28;20130;-85
2021/12/17 16:18:14;;;;;;;13.40;6.28;;;9.00;99.90;;;;;;4990040;28;20054;-86
2021/12/17 16:21:03;;;;;;;13.02;6.07;;;9.00;99.90;;;;;;4987374;28;20119;-85
2021/12/17 16:23:35;;;;;;;15.45;6.30;;;8.90;99.90;;;;;;4988146;28;20041;-85
2021/12/17 16:26:01;;;;;;;12.07;4.90;;;8.90;99.90;;;;;;5015922;28;20667;-84
2021/12/17 16:28:29;;;;;;;12.23;4.75;;;8.90;99.90;;;;;;5010898;28;20090;-85
2021/12/17 16:31:07;;;;;;;14.68;5.10;;;8.80;99.90;;;;;;4986007;28;20443;-85
2021/12/17 16:33:33;;;;;;;11.32;4.43;;;8.80;99.90;;;;;;4987523;28;20057;-85
2021/12/17 16:36:01;;;;;;;10.45;4.13;;;8.80;99.90;;;;;;4978413;28;20057;-86
2021/12/17 16:38:29;;;;;;;9.55;3.95;;;8.80;99.90;;;;;;4975591;28;20081;-86
2021/12/17 16:40:56;;;;;;;10.55;4.20;;;9.80;99.90;;;;;;4961369;28;20068;-86
2021/12/17 16:43:23;;;;;;;11.02;3.80;;;9.10;99.90;;;;;;5017191;28;20046;-85
2021/12/17 16:47:01;;;;;;;9.45;3.70;;;8.70;99.90;;;;;;5001473;28;20042;-87
2021/12/17 16:48:56;;;;;;;8.85;3.60;;;8.60;99.90;;;;;;4982206;28;20046;-86
2021/12/17 16:51:23;;;;;;;9.55;3.20;;;8.70;99.90;;;;;;5002504;28;20519;-85